createdAt,value
2023-09-08T00:00:03.927Z,16.245422
2023-09-08T00:03:29.190Z,16.265564
2023-09-08T00:06:54.334Z,16.295776
2023-09-08T00:10:19.486Z,16.295776
2023-09-08T00:13:44.711Z,16.325989
2023-09-08T00:17:09.902Z,16.275635
2023-09-08T00:20:35.089Z,16.33606
2023-09-08T00:24:00.217Z,16.376343
2023-09-08T00:27:25.385Z,16.376343
2023-09-08T00:30:50.613Z,16.376343
2023-09-08T00:34:15.963Z,16.406555
2023-09-08T00:37:41.079Z,16.406555
2023-09-08T00:41:06.258Z,16.477051
2023-09-08T00:44:31.396Z,16.426697
2023-09-08T00:47:56.650Z,16.406555
2023-09-08T00:51:21.775Z,16.386414
2023-09-08T00:54:46.998Z,16.386414
2023-09-08T00:58:12.150Z,16.275635
2023-09-08T01:01:37.338Z,16.235352
2023-09-08T01:05:02.506Z,16.154785
2023-09-08T01:08:27.676Z,16.124573
2023-09-08T01:11:52.931Z,16.08429
2023-09-08T01:15:18.071Z,16.013794
2023-09-08T01:18:43.324Z,15.96344
2023-09-08T01:22:08.409Z,15.933228
2023-09-08T01:25:33.612Z,15.933228
2023-09-08T01:28:58.800Z,15.933228
2023-09-08T01:32:23.929Z,15.973511
2023-09-08T01:35:49.092Z,16.044006
2023-09-08T01:39:14.341Z,16.044006
2023-09-08T01:42:39.509Z,16.044006
2023-09-08T01:46:04.772Z,16.023865
2023-09-08T01:49:29.863Z,16.013794
2023-09-08T01:52:55.031Z,15.923157
2023-09-08T01:56:20.202Z,15.862732
2023-09-08T01:59:45.399Z,15.751953
2023-09-08T02:03:10.608Z,15.651245
2023-09-08T02:06:35.778Z,15.59082
2023-09-08T02:10:00.941Z,15.59082
2023-09-08T02:13:26.108Z,15.560608
2023-09-08T02:16:51.298Z,15.570679
2023-09-08T02:20:16.973Z,15.570679
2023-09-08T02:23:42.128Z,15.59082
2023-09-08T02:27:07.291Z,15.59082
2023-09-08T02:30:32.485Z,15.641174
2023-09-08T02:33:57.719Z,15.600891
2023-09-08T02:37:22.876Z,15.621033
2023-09-08T02:40:48.037Z,15.621033
2023-09-08T02:44:13.232Z,15.570679
2023-09-08T02:47:38.452Z,15.500183
2023-09-08T02:51:03.612Z,15.359192
2023-09-08T02:54:28.796Z,15.288696
2023-09-08T02:57:53.956Z,15.20813
2023-09-08T03:01:20.149Z,15.137634
2023-09-08T03:04:45.277Z,15.187988
2023-09-08T03:08:10.516Z,15.20813
2023-09-08T03:11:35.712Z,15.198059
2023-09-08T03:15:00.920Z,15.157776
2023-09-08T03:18:26.137Z,15.137634
2023-09-08T03:21:51.415Z,15.057068
2023-09-08T03:25:16.611Z,15.006714
2023-09-08T03:28:41.857Z,14.885864
2023-09-08T03:32:07.147Z,14.885864
2023-09-08T03:35:32.270Z,14.825439
2023-09-08T03:38:57.443Z,14.765015
2023-09-08T03:42:22.690Z,14.765015
2023-09-08T03:45:47.839Z,14.805298
2023-09-08T03:49:13.015Z,14.906006
2023-09-08T03:52:38.224Z,14.95636
2023-09-08T03:56:03.428Z,15.026855
2023-09-08T03:59:28.596Z,15.097351
2023-09-08T04:02:53.895Z,15.057068
2023-09-08T04:06:18.981Z,15.107422
2023-09-08T04:09:44.146Z,15.157776
2023-09-08T04:13:09.369Z,15.33905
2023-09-08T04:16:35.021Z,15.469971
2023-09-08T04:20:00.246Z,15.59082
2023-09-08T04:23:25.412Z,15.600891
2023-09-08T04:26:50.597Z,15.560608
2023-09-08T04:30:16.049Z,15.540466
2023-09-08T04:33:41.064Z,15.59082
2023-09-08T04:37:06.230Z,15.560608
2023-09-08T04:40:31.416Z,15.510254
2023-09-08T04:43:56.600Z,15.469971
2023-09-08T04:47:21.843Z,15.409546
2023-09-08T04:50:47.059Z,15.359192
2023-09-08T04:54:12.297Z,15.288696
2023-09-08T04:57:37.482Z,15.268555
2023-09-08T05:01:02.710Z,15.167847
2023-09-08T05:04:27.985Z,15.167847
2023-09-08T05:07:53.131Z,15.157776
2023-09-08T05:11:18.357Z,15.107422
2023-09-08T05:14:43.530Z,15.097351
2023-09-08T05:18:08.758Z,15.097351
2023-09-08T05:21:33.951Z,15.127563
2023-09-08T05:24:59.218Z,15.127563
2023-09-08T05:34:45.342Z,15.127563
2023-09-08T05:39:12.129Z,15.228271
2023-09-08T05:42:38.361Z,15.349121
2023-09-08T05:46:03.593Z,15.500183
2023-09-08T05:49:28.747Z,15.621033
2023-09-08T05:52:53.947Z,15.751953
2023-09-08T05:56:19.182Z,15.84259
2023-09-08T05:59:44.333Z,15.973511
2023-09-08T06:03:09.846Z,16.074219
2023-09-08T06:06:34.673Z,16.144714
2023-09-08T06:09:59.866Z,16.225281
2023-09-08T06:13:25.003Z,16.305847
2023-09-08T06:16:50.219Z,16.416626
2023-09-08T06:20:15.409Z,16.426697
2023-09-08T06:23:40.555Z,16.557617
2023-09-08T06:27:05.762Z,16.658325
2023-09-08T06:30:30.929Z,16.678467
2023-09-08T06:33:56.214Z,16.728821
2023-09-08T06:37:21.319Z,16.779175
2023-09-08T06:40:46.483Z,16.779175
2023-09-08T06:44:11.713Z,16.809387
2023-09-08T06:47:36.933Z,16.859741
2023-09-08T06:51:02.101Z,16.930237
2023-09-08T06:54:28.049Z,16.97052
2023-09-08T06:57:53.250Z,17.010803
2023-09-08T07:01:18.566Z,17.111511
2023-09-08T07:04:43.725Z,17.212219
2023-09-08T07:08:08.856Z,17.22229
2023-09-08T07:11:34.026Z,17.333069
2023-09-08T07:14:59.239Z,17.443848
2023-09-08T07:18:24.448Z,17.524414
2023-09-08T07:21:49.616Z,17.635193
2023-09-08T07:25:14.799Z,17.786255
2023-09-08T07:28:39.995Z,17.997742
2023-09-08T07:32:05.193Z,18.148804
2023-09-08T07:35:30.395Z,18.299866
2023-09-08T07:38:55.525Z,18.521423
2023-09-08T07:42:20.738Z,18.581848
2023-09-08T07:45:45.952Z,18.702698
2023-09-08T07:49:11.100Z,18.843689
2023-09-08T07:52:36.300Z,18.954468
2023-09-08T07:56:01.479Z,19.055176
2023-09-08T07:59:26.649Z,19.176025
2023-09-08T08:02:51.811Z,19.246521
2023-09-08T08:06:16.962Z,19.3573
2023-09-08T08:09:43.364Z,19.3573
2023-09-08T08:13:08.525Z,19.397583
2023-09-08T08:16:33.712Z,19.437866
2023-09-08T08:19:58.864Z,19.508362
2023-09-08T08:23:24.055Z,19.558716
2023-09-08T08:26:49.256Z,19.578857
2023-09-08T08:30:14.430Z,19.679565
2023-09-08T08:33:39.657Z,19.810486
2023-09-08T08:37:04.810Z,19.840698
2023-09-08T08:40:29.998Z,19.86084
2023-09-08T08:43:55.206Z,19.911194
2023-09-08T08:47:20.465Z,20.052185
2023-09-08T08:50:45.499Z,20.132751
2023-09-08T08:54:10.673Z,20.293884
2023-09-08T08:57:35.879Z,20.36438
2023-09-08T09:01:01.168Z,20.575867
2023-09-08T09:04:26.334Z,20.686646
2023-09-08T09:07:51.504Z,20.686646
2023-09-08T09:11:16.683Z,20.716858
2023-09-08T09:14:41.856Z,20.716858
2023-09-08T09:18:07.252Z,20.797424
2023-09-08T09:21:32.178Z,20.847778
2023-09-08T09:24:57.465Z,20.888062
2023-09-08T09:28:22.582Z,20.888062
2023-09-08T09:31:47.759Z,20.978699
2023-09-08T09:35:13.001Z,21.039124
2023-09-08T09:38:38.379Z,21.220398
2023-09-08T09:42:03.286Z,21.441956
2023-09-08T09:45:28.501Z,21.542664
2023-09-08T09:48:53.656Z,21.522522
2023-09-08T09:52:18.986Z,21.613159
2023-09-08T09:55:44.193Z,21.74408
2023-09-08T09:59:09.374Z,21.824646
2023-09-08T10:02:34.662Z,21.905212
2023-09-08T10:05:59.924Z,22.015991
2023-09-08T10:09:25.089Z,22.056274
2023-09-08T10:12:50.278Z,22.267761
2023-09-08T10:16:15.541Z,22.388611
2023-09-08T10:19:40.750Z,22.519531
2023-09-08T10:23:05.957Z,22.620239
2023-09-08T10:26:31.186Z,22.801514
2023-09-08T10:29:56.403Z,22.922363
2023-09-08T10:33:21.667Z,23.093567
2023-09-08T10:36:47.346Z,23.224487
2023-09-08T10:40:12.624Z,23.315125
2023-09-08T10:43:37.922Z,23.38562
2023-09-08T10:47:03.124Z,23.425903
2023-09-08T10:50:28.412Z,23.546753
2023-09-08T10:53:53.587Z,23.566895
2023-09-08T10:57:18.816Z,23.576965
2023-09-08T11:00:44.060Z,23.657532
2023-09-08T11:04:09.284Z,23.697815
2023-09-08T11:07:34.410Z,23.828735
2023-09-08T11:10:59.632Z,23.929443
2023-09-08T11:14:24.890Z,23.979797
2023-09-08T11:17:50.187Z,24.120789
2023-09-08T11:21:15.315Z,24.241638
2023-09-08T11:24:40.658Z,24.372559
2023-09-08T11:32:50.747Z,24.432983
2023-09-08T11:37:04.474Z,24.453125
2023-09-08T11:41:16.713Z,24.503479
2023-09-08T11:44:41.974Z,24.493408
2023-09-08T11:48:07.254Z,24.533691
2023-09-08T11:51:32.386Z,24.523621
2023-09-08T11:55:06.872Z,24.493408
2023-09-08T11:58:22.945Z,24.553833
2023-09-08T12:01:48.195Z,24.584045
2023-09-08T12:05:13.406Z,24.624329
2023-09-08T12:08:38.642Z,24.76532
2023-09-08T12:12:03.906Z,24.845886
2023-09-08T12:15:29.129Z,24.866028
2023-09-08T12:18:54.425Z,24.845886
2023-09-08T12:22:19.597Z,24.835815
2023-09-08T12:25:44.838Z,24.876099
2023-09-08T12:29:10.074Z,24.89624
2023-09-08T12:32:35.278Z,24.866028
2023-09-08T12:36:00.559Z,24.835815
2023-09-08T12:39:25.753Z,24.835815
2023-09-08T12:42:57.172Z,24.906311
2023-09-08T12:46:16.275Z,24.946594
2023-09-08T12:49:41.484Z,24.956665
2023-09-08T12:53:06.682Z,25.027161
2023-09-08T12:56:31.902Z,25.14801
2023-09-08T12:59:57.160Z,25.198364
2023-09-08T13:03:22.379Z,25.198364
2023-09-08T13:06:47.667Z,25.178223
2023-09-08T13:10:12.889Z,25.198364
2023-09-08T13:13:38.010Z,25.168152
2023-09-08T13:17:03.269Z,25.097656
2023-09-08T13:20:28.472Z,25.137939
2023-09-08T13:23:53.699Z,25.077515
2023-09-08T13:27:19.290Z,25.137939
2023-09-08T13:30:44.556Z,25.087585
2023-09-08T13:34:09.783Z,25.127869
2023-09-08T13:37:35.027Z,25.057373
2023-09-08T13:41:00.277Z,25.077515
2023-09-08T13:44:25.622Z,25.047302
2023-09-08T13:47:50.842Z,25.097656
2023-09-08T13:51:17.705Z,25.168152
2023-09-08T13:54:44.608Z,25.087585
2023-09-08T13:58:09.057Z,25.027161
2023-09-08T14:01:34.166Z,25.077515
2023-09-08T14:05:02.474Z,25.047302
2023-09-08T14:08:28.089Z,24.89624
2023-09-08T14:15:12.640Z,24.755249
2023-09-08T14:18:37.874Z,24.906311
2023-09-08T14:22:03.093Z,24.976807
2023-09-08T14:25:28.303Z,24.956665
2023-09-08T14:28:53.558Z,24.876099
2023-09-08T14:32:18.776Z,24.89624
2023-09-08T14:35:44.034Z,24.906311
2023-09-08T14:39:09.297Z,24.825745
2023-09-08T14:42:34.487Z,24.755249
2023-09-08T14:45:59.764Z,24.684753
2023-09-08T14:49:26.099Z,24.684753
2023-09-08T14:52:56.302Z,24.604187
2023-09-08T14:56:22.169Z,24.533691
2023-09-08T14:59:52.630Z,24.573975
2023-09-08T15:03:17.981Z,24.614258
2023-09-08T15:06:43.327Z,24.604187
2023-09-08T15:10:19.651Z,24.825745
2023-09-08T15:47:21.115Z,24.453125
2023-09-08T15:50:46.300Z,24.312134
2023-09-08T15:54:11.579Z,24.251709
2023-09-08T15:57:36.831Z,24.151001
2023-09-08T16:01:02.168Z,24.060364
2023-09-08T16:04:27.446Z,24.080505
2023-09-08T16:07:52.544Z,24.060364
2023-09-08T16:11:17.763Z,23.969727
2023-09-08T16:14:43.014Z,23.899231
2023-09-08T16:18:08.277Z,23.848877
2023-09-08T16:21:33.505Z,23.828735
2023-09-08T16:24:58.737Z,23.828735
2023-09-08T16:28:23.947Z,23.75824
2023-09-08T16:31:49.143Z,23.687744
2023-09-08T16:35:14.530Z,23.627319
2023-09-08T16:38:39.702Z,23.526611
2023-09-08T16:42:04.949Z,23.395691
2023-09-08T16:45:30.159Z,23.325195
2023-09-08T16:48:55.396Z,23.234558
2023-09-08T16:52:20.632Z,23.164062
2023-09-08T16:55:45.881Z,23.073425
2023-09-08T16:59:11.071Z,23.00293
2023-09-08T17:02:36.347Z,22.942505
2023-09-08T17:06:01.575Z,22.831726
2023-09-08T17:09:26.754Z,22.75116
2023-09-08T17:12:52.053Z,22.610168
2023-09-08T17:16:17.284Z,22.469177
2023-09-08T17:19:42.482Z,22.358398
2023-09-08T17:23:07.738Z,22.277832
2023-09-08T17:26:32.982Z,22.177124
2023-09-08T17:29:58.224Z,22.026062
2023-09-08T17:33:23.433Z,21.905212
2023-09-08T17:36:48.659Z,21.75415
2023-09-08T17:40:13.874Z,21.562805
2023-09-08T17:43:39.323Z,21.311035
2023-09-08T17:47:04.441Z,21.008911
2023-09-08T17:50:30.866Z,20.817566
2023-09-08T17:53:56.088Z,20.606079
2023-09-08T17:57:21.332Z,20.324097
2023-09-08T18:00:46.635Z,20.173035
2023-09-08T18:04:11.926Z,20.082397
2023-09-08T18:07:37.030Z,20.032043
2023-09-08T18:11:02.278Z,19.941406
2023-09-08T18:14:27.458Z,19.830627
2023-09-08T18:17:52.676Z,19.73999
2023-09-08T18:21:17.820Z,19.659424
2023-09-08T18:24:42.959Z,19.679565
2023-09-08T18:28:08.148Z,19.629211
2023-09-08T18:31:33.648Z,19.498291
2023-09-08T18:34:58.602Z,19.367371
2023-09-08T18:38:23.850Z,19.276733
2023-09-08T18:41:49.026Z,19.226379
2023-09-08T18:45:14.280Z,19.216309
2023-09-08T18:48:39.490Z,19.186096
2023-09-08T18:52:04.742Z,18.994751
2023-09-08T18:55:30.040Z,18.85376
2023-09-08T18:58:55.178Z,18.702698
2023-09-08T19:02:20.517Z,18.471069
2023-09-08T19:06:10.039Z,18.299866
2023-09-08T19:09:39.198Z,18.259583
2023-09-08T19:13:04.434Z,18.249512
2023-09-08T19:16:29.711Z,18.168945
2023-09-08T19:19:54.860Z,18.138733
2023-09-08T19:23:20.084Z,18.168945
2023-09-08T19:26:45.271Z,18.179016
2023-09-08T19:30:10.596Z,18.22937
2023-09-08T19:33:36.038Z,18.269653
2023-09-08T19:37:01.129Z,18.299866
2023-09-08T19:40:26.264Z,18.320007
2023-09-08T19:43:51.427Z,18.269653
2023-09-08T19:47:16.631Z,18.118591
2023-09-08T19:50:41.763Z,18.027954
2023-09-08T19:54:06.931Z,18.017883
2023-09-08T19:57:32.148Z,17.987671
2023-09-08T20:00:57.320Z,18.048096
2023-09-08T20:04:22.520Z,18.09845
2023-09-08T20:07:47.648Z,18.118591
2023-09-08T20:11:12.819Z,18.09845
2023-09-08T20:14:37.977Z,18.09845
2023-09-08T20:18:03.218Z,18.09845
2023-09-08T20:21:28.390Z,18.048096
2023-09-08T20:24:53.570Z,18.068237
2023-09-08T20:28:18.754Z,18.048096
2023-09-08T20:31:43.991Z,17.957458
2023-09-08T20:35:09.163Z,17.766113
2023-09-08T20:38:34.440Z,17.655334
2023-09-08T20:41:59.503Z,17.655334
2023-09-08T20:45:24.724Z,17.695618
2023-09-08T20:48:49.913Z,17.655334
2023-09-08T20:52:15.063Z,17.564697
2023-09-08T20:55:40.259Z,17.463989
2023-09-08T20:59:05.424Z,17.333069
2023-09-08T21:02:30.634Z,17.312927
2023-09-08T21:05:55.812Z,17.312927
2023-09-08T21:09:21.014Z,17.433777
2023-09-08T21:12:46.210Z,17.514343
2023-09-08T21:16:11.373Z,17.494202
2023-09-08T21:19:36.485Z,17.514343
2023-09-08T21:23:01.660Z,17.615051
2023-09-08T21:26:26.929Z,17.564697
2023-09-08T21:29:52.121Z,17.463989
2023-09-08T21:33:17.251Z,17.433777
2023-09-08T21:36:42.413Z,17.514343
2023-09-08T21:40:07.623Z,17.564697
2023-09-08T21:43:32.775Z,17.484131
2023-09-08T21:46:58.001Z,17.443848
2023-09-08T21:50:23.166Z,17.282715
2023-09-08T21:53:48.329Z,17.141724
2023-09-08T21:57:13.508Z,16.980591
2023-09-08T22:00:38.673Z,16.910095
2023-09-08T22:04:04.046Z,16.829529
2023-09-08T22:07:29.070Z,16.708679
2023-09-08T22:10:54.254Z,16.728821
2023-09-08T22:14:19.443Z,16.748962
2023-09-08T22:17:44.641Z,16.638184
2023-09-08T22:21:09.904Z,16.567688
2023-09-08T22:24:35.040Z,16.446838
2023-09-08T22:28:00.210Z,16.406555
2023-09-08T22:31:25.393Z,16.376343
2023-09-08T22:34:50.563Z,16.295776
2023-09-08T22:38:15.772Z,16.174927
2023-09-08T22:41:40.986Z,16.205139
2023-09-08T22:45:06.190Z,16.245422
2023-09-08T22:48:31.330Z,16.325989
2023-09-08T22:51:56.518Z,16.386414
2023-09-08T22:55:24.796Z,16.325989
2023-09-08T22:58:46.968Z,16.154785
2023-09-08T23:02:12.092Z,16.013794
2023-09-08T23:05:37.218Z,15.903015
2023-09-08T23:09:02.412Z,15.802307
2023-09-08T23:12:27.615Z,15.762024
2023-09-08T23:15:52.789Z,15.83252
2023-09-08T23:19:17.973Z,15.872803
2023-09-08T23:22:43.192Z,15.83252
2023-09-08T23:26:08.400Z,15.923157
2023-09-08T23:29:33.593Z,15.872803
2023-09-08T23:32:58.776Z,15.872803
2023-09-08T23:36:23.970Z,15.84259
2023-09-08T23:39:49.153Z,15.681458
2023-09-08T23:43:14.332Z,15.651245
2023-09-08T23:46:39.611Z,15.681458
2023-09-08T23:50:04.722Z,15.751953
2023-09-08T23:53:29.954Z,15.802307
2023-09-08T23:56:55.065Z,15.782166
